sensor_id;sensor_type;location;lat;lon;timestamp;P1;durP1;ratioP1;P2;durP2;ratioP2
36009;SDS011;22076;52.182;5.404;2022-09-24T00:02:24;36.08;;;23.40;;
36009;SDS011;22076;52.182;5.404;2022-09-24T00:04:51;35.85;;;23.83;;
36009;SDS011;22076;52.182;5.404;2022-09-24T00:07:18;33.40;;;22.73;;
36009;SDS011;22076;52.182;5.404;2022-09-24T00:09:45;45.40;;;29.00;;
36009;SDS011;22076;52.182;5.404;2022-09-24T00:12:13;37.78;;;23.77;;
36009;SDS011;22076;52.182;5.404;2022-09-24T00:14:40;38.13;;;24.00;;
36009;SDS011;22076;52.182;5.404;2022-09-24T00:17:06;38.05;;;25.35;;
36009;SDS011;22076;52.182;5.404;2022-09-24T00:19:33;48.78;;;30.48;;
36009;SDS011;22076;52.182;5.404;2022-09-24T00:21:59;34.13;;;21.77;;
36009;SDS011;22076;52.182;5.404;2022-09-24T00:24:26;33.78;;;20.30;;
36009;SDS011;22076;52.182;5.404;2022-09-24T00:27:10;36.40;;;23.23;;
36009;SDS011;22076;52.182;5.404;2022-09-24T00:29:38;37.38;;;23.33;;
36009;SDS011;22076;52.182;5.404;2022-09-24T00:32:04;42.92;;;28.80;;
36009;SDS011;22076;52.182;5.404;2022-09-24T00:34:31;30.88;;;19.33;;
36009;SDS011;22076;52.182;5.404;2022-09-24T00:36:58;35.80;;;21.73;;
36009;SDS011;22076;52.182;5.404;2022-09-24T00:39:25;26.48;;;17.63;;
36009;SDS011;22076;52.182;5.404;2022-09-24T00:41:52;38.40;;;24.90;;
36009;SDS011;22076;52.182;5.404;2022-09-24T00:47:17;33.88;;;21.58;;
36009;SDS011;22076;52.182;5.404;2022-09-24T00:50:12;26.58;;;17.17;;
36009;SDS011;22076;52.182;5.404;2022-09-24T00:52:43;30.30;;;19.75;;
36009;SDS011;22076;52.182;5.404;2022-09-24T00:55:12;29.65;;;20.45;;
36009;SDS011;22076;52.182;5.404;2022-09-24T00:57:39;29.83;;;20.55;;
36009;SDS011;22076;52.182;5.404;2022-09-24T01:00:09;27.17;;;17.67;;
36009;SDS011;22076;52.182;5.404;2022-09-24T01:02:36;24.58;;;16.23;;
36009;SDS011;22076;52.182;5.404;2022-09-24T01:05:05;25.67;;;16.42;;
36009;SDS011;22076;52.182;5.404;2022-09-24T01:07:34;28.77;;;19.77;;
36009;SDS011;22076;52.182;5.404;2022-09-24T01:10:01;27.65;;;18.80;;
36009;SDS011;22076;52.182;5.404;2022-09-24T01:12:29;21.20;;;14.30;;
36009;SDS011;22076;52.182;5.404;2022-09-24T01:15:06;30.10;;;19.95;;
36009;SDS011;22076;52.182;5.404;2022-09-24T01:17:45;27.15;;;17.98;;
36009;SDS011;22076;52.182;5.404;2022-09-24T01:23:14;23.35;;;16.15;;
36009;SDS011;22076;52.182;5.404;2022-09-24T01:25:55;22.42;;;15.50;;
36009;SDS011;22076;52.182;5.404;2022-09-24T01:28:32;21.38;;;14.93;;
36009;SDS011;22076;52.182;5.404;2022-09-24T01:31:04;29.92;;;20.40;;
36009;SDS011;22076;52.182;5.404;2022-09-24T01:33:37;27.70;;;17.00;;
36009;SDS011;22076;52.182;5.404;2022-09-24T01:36:05;22.02;;;15.50;;
36009;SDS011;22076;52.182;5.404;2022-09-24T01:38:37;26.13;;;17.65;;
36009;SDS011;22076;52.182;5.404;2022-09-24T01:41:06;23.83;;;16.02;;
36009;SDS011;22076;52.182;5.404;2022-09-24T01:43:34;32.85;;;21.95;;
36009;SDS011;22076;52.182;5.404;2022-09-24T01:46:04;26.75;;;17.00;;
36009;SDS011;22076;52.182;5.404;2022-09-24T01:48:31;32.97;;;21.88;;
36009;SDS011;22076;52.182;5.404;2022-09-24T01:50:59;23.88;;;14.13;;
36009;SDS011;22076;52.182;5.404;2022-09-24T01:53:28;27.20;;;17.17;;
36009;SDS011;22076;52.182;5.404;2022-09-24T01:55:58;21.30;;;14.17;;
36009;SDS011;22076;52.182;5.404;2022-09-24T01:58:27;37.25;;;22.83;;
36009;SDS011;22076;52.182;5.404;2022-09-24T02:00:58;31.42;;;19.00;;
36009;SDS011;22076;52.182;5.404;2022-09-24T02:03:32;25.98;;;16.83;;
36009;SDS011;22076;52.182;5.404;2022-09-24T02:06:02;28.38;;;17.13;;
36009;SDS011;22076;52.182;5.404;2022-09-24T02:08:31;34.30;;;22.45;;
36009;SDS011;22076;52.182;5.404;2022-09-24T02:11:00;22.90;;;14.25;;
36009;SDS011;22076;52.182;5.404;2022-09-24T02:13:30;35.50;;;23.20;;
36009;SDS011;22076;52.182;5.404;2022-09-24T02:16:05;28.38;;;18.80;;
36009;SDS011;22076;52.182;5.404;2022-09-24T02:18:34;35.13;;;21.05;;
36009;SDS011;22076;52.182;5.404;2022-09-24T02:21:05;35.75;;;21.98;;
36009;SDS011;22076;52.182;5.404;2022-09-24T02:23:35;34.38;;;21.42;;
36009;SDS011;22076;52.182;5.404;2022-09-24T02:26:06;27.83;;;16.52;;
36009;SDS011;22076;52.182;5.404;2022-09-24T02:28:33;34.88;;;21.95;;
36009;SDS011;22076;52.182;5.404;2022-09-24T02:31:01;30.85;;;19.25;;
36009;SDS011;22076;52.182;5.404;2022-09-24T02:33:31;38.70;;;24.23;;
36009;SDS011;22076;52.182;5.404;2022-09-24T02:36:17;28.98;;;18.70;;
36009;SDS011;22076;52.182;5.404;2022-09-24T02:38:44;38.42;;;24.17;;
36009;SDS011;22076;52.182;5.404;2022-09-24T02:41:11;33.10;;;21.20;;
36009;SDS011;22076;52.182;5.404;2022-09-24T02:43:38;33.35;;;20.65;;
36009;SDS011;22076;52.182;5.404;2022-09-24T02:46:05;27.88;;;16.77;;
36009;SDS011;22076;52.182;5.404;2022-09-24T02:48:33;43.70;;;26.20;;
36009;SDS011;22076;52.182;5.404;2022-09-24T02:51:00;38.22;;;23.20;;
36009;SDS011;22076;52.182;5.404;2022-09-24T02:53:28;40.70;;;24.92;;
36009;SDS011;22076;52.182;5.404;2022-09-24T02:55:54;35.95;;;23.08;;
36009;SDS011;22076;52.182;5.404;2022-09-24T02:58:24;38.67;;;22.55;;
36009;SDS011;22076;52.182;5.404;2022-09-24T03:00:51;35.97;;;21.52;;
36009;SDS011;22076;52.182;5.404;2022-09-24T03:03:19;43.58;;;26.27;;
36009;SDS011;22076;52.182;5.404;2022-09-24T03:05:48;36.10;;;22.67;;
36009;SDS011;22076;52.182;5.404;2022-09-24T03:08:18;45.88;;;28.10;;
36009;SDS011;22076;52.182;5.404;2022-09-24T03:10:45;41.00;;;25.33;;
36009;SDS011;22076;52.182;5.404;2022-09-24T03:13:12;32.90;;;20.02;;
36009;SDS011;22076;52.182;5.404;2022-09-24T03:15:38;40.85;;;25.45;;
36009;SDS011;22076;52.182;5.404;2022-09-24T03:18:05;43.97;;;25.63;;
36009;SDS011;22076;52.182;5.404;2022-09-24T03:20:32;46.95;;;28.00;;
36009;SDS011;22076;52.182;5.404;2022-09-24T03:22:59;43.10;;;25.38;;
36009;SDS011;22076;52.182;5.404;2022-09-24T03:25:26;37.25;;;22.15;;
36009;SDS011;22076;52.182;5.404;2022-09-24T03:27:53;30.35;;;19.10;;
36009;SDS011;22076;52.182;5.404;2022-09-24T03:30:19;36.38;;;22.30;;
36009;SDS011;22076;52.182;5.404;2022-09-24T03:33:03;37.40;;;22.75;;
36009;SDS011;22076;52.182;5.404;2022-09-24T03:35:30;36.15;;;21.35;;
36009;SDS011;22076;52.182;5.404;2022-09-24T03:37:57;37.05;;;23.85;;
36009;SDS011;22076;52.182;5.404;2022-09-24T03:40:25;44.72;;;26.85;;
36009;SDS011;22076;52.182;5.404;2022-09-24T03:42:51;33.88;;;20.10;;
36009;SDS011;22076;52.182;5.404;2022-09-24T03:45:18;30.90;;;18.70;;
36009;SDS011;22076;52.182;5.404;2022-09-24T03:47:45;50.63;;;29.38;;
36009;SDS011;22076;52.182;5.404;2022-09-24T03:50:11;36.33;;;21.73;;
36009;SDS011;22076;52.182;5.404;2022-09-24T03:52:38;37.30;;;20.27;;
36009;SDS011;22076;52.182;5.404;2022-09-24T03:55:06;42.90;;;27.38;;
36009;SDS011;22076;52.182;5.404;2022-09-24T03:57:34;48.35;;;28.75;;
36009;SDS011;22076;52.182;5.404;2022-09-24T04:00:01;36.72;;;20.77;;
36009;SDS011;22076;52.182;5.404;2022-09-24T04:02:28;50.30;;;30.33;;
36009;SDS011;22076;52.182;5.404;2022-09-24T04:04:55;41.08;;;26.77;;
36009;SDS011;22076;52.182;5.404;2022-09-24T04:07:22;43.25;;;25.58;;
36009;SDS011;22076;52.182;5.404;2022-09-24T04:09:48;47.55;;;27.55;;
36009;SDS011;22076;52.182;5.404;2022-09-24T04:12:15;31.02;;;20.10;;
36009;SDS011;22076;52.182;5.404;2022-09-24T04:14:43;42.47;;;22.80;;
36009;SDS011;22076;52.182;5.404;2022-09-24T04:17:10;36.67;;;21.52;;
36009;SDS011;22076;52.182;5.404;2022-09-24T04:19:36;41.78;;;24.38;;
36009;SDS011;22076;52.182;5.404;2022-09-24T04:22:03;40.58;;;24.10;;
36009;SDS011;22076;52.182;5.404;2022-09-24T04:24:30;48.78;;;26.85;;
36009;SDS011;22076;52.182;5.404;2022-09-24T04:26:57;37.30;;;22.10;;
36009;SDS011;22076;52.182;5.404;2022-09-24T04:29:23;48.83;;;29.02;;
36009;SDS011;22076;52.182;5.404;2022-09-24T04:31:51;44.63;;;26.75;;
36009;SDS011;22076;52.182;5.404;2022-09-24T04:34:18;34.38;;;21.05;;
36009;SDS011;22076;52.182;5.404;2022-09-24T04:36:44;47.75;;;30.13;;
36009;SDS011;22076;52.182;5.404;2022-09-24T04:39:11;43.75;;;27.35;;
36009;SDS011;22076;52.182;5.404;2022-09-24T04:41:37;31.58;;;18.65;;
36009;SDS011;22076;52.182;5.404;2022-09-24T04:44:05;37.90;;;22.33;;
36009;SDS011;22076;52.182;5.404;2022-09-24T04:46:31;37.85;;;23.15;;
36009;SDS011;22076;52.182;5.404;2022-09-24T04:48:59;36.55;;;20.58;;
36009;SDS011;22076;52.182;5.404;2022-09-24T04:51:26;35.45;;;22.55;;
36009;SDS011;22076;52.182;5.404;2022-09-24T04:53:52;41.42;;;25.05;;
36009;SDS011;22076;52.182;5.404;2022-09-24T04:56:19;32.03;;;20.10;;
36009;SDS011;22076;52.182;5.404;2022-09-24T04:58:48;42.95;;;26.45;;
36009;SDS011;22076;52.182;5.404;2022-09-24T05:01:15;38.55;;;23.88;;
36009;SDS011;22076;52.182;5.404;2022-09-24T05:03:43;39.55;;;24.58;;
36009;SDS011;22076;52.182;5.404;2022-09-24T05:06:11;47.92;;;29.02;;
36009;SDS011;22076;52.182;5.404;2022-09-24T05:08:38;40.38;;;24.42;;
36009;SDS011;22076;52.182;5.404;2022-09-24T05:11:04;46.90;;;28.15;;
36009;SDS011;22076;52.182;5.404;2022-09-24T05:13:31;33.10;;;20.77;;
36009;SDS011;22076;52.182;5.404;2022-09-24T05:15:57;36.58;;;20.70;;
36009;SDS011;22076;52.182;5.404;2022-09-24T05:18:25;35.55;;;21.65;;
36009;SDS011;22076;52.182;5.404;2022-09-24T05:20:52;30.05;;;18.67;;
36009;SDS011;22076;52.182;5.404;2022-09-24T05:23:20;29.75;;;19.23;;
36009;SDS011;22076;52.182;5.404;2022-09-24T05:25:47;34.42;;;20.75;;
36009;SDS011;22076;52.182;5.404;2022-09-24T05:28:31;48.20;;;28.10;;
36009;SDS011;22076;52.182;5.404;2022-09-24T05:30:59;37.25;;;21.15;;
36009;SDS011;22076;52.182;5.404;2022-09-24T05:33:26;33.60;;;18.73;;
36009;SDS011;22076;52.182;5.404;2022-09-24T05:35:53;33.13;;;20.50;;
36009;SDS011;22076;52.182;5.404;2022-09-24T05:38:21;42.35;;;25.10;;
36009;SDS011;22076;52.182;5.404;2022-09-24T05:40:48;54.78;;;31.08;;
36009;SDS011;22076;52.182;5.404;2022-09-24T05:43:18;56.85;;;32.08;;
36009;SDS011;22076;52.182;5.404;2022-09-24T05:45:45;33.47;;;19.50;;
36009;SDS011;22076;52.182;5.404;2022-09-24T05:48:13;43.10;;;26.25;;
36009;SDS011;22076;52.182;5.404;2022-09-24T05:50:39;54.78;;;31.90;;
36009;SDS011;22076;52.182;5.404;2022-09-24T05:53:06;38.92;;;22.80;;
36009;SDS011;22076;52.182;5.404;2022-09-24T05:55:35;36.33;;;22.30;;
36009;SDS011;22076;52.182;5.404;2022-09-24T05:58:02;43.65;;;26.17;;
36009;SDS011;22076;52.182;5.404;2022-09-24T06:00:30;34.08;;;20.83;;
36009;SDS011;22076;52.182;5.404;2022-09-24T06:03:01;41.90;;;26.30;;
36009;SDS011;22076;52.182;5.404;2022-09-24T06:05:29;36.55;;;22.42;;
36009;SDS011;22076;52.182;5.404;2022-09-24T06:07:58;39.90;;;22.83;;
36009;SDS011;22076;52.182;5.404;2022-09-24T06:10:24;45.72;;;26.00;;
36009;SDS011;22076;52.182;5.404;2022-09-24T06:12:52;39.03;;;22.88;;
36009;SDS011;22076;52.182;5.404;2022-09-24T06:15:19;23.55;;;15.48;;
36009;SDS011;22076;52.182;5.404;2022-09-24T06:17:46;35.42;;;21.85;;
36009;SDS011;22076;52.182;5.404;2022-09-24T06:20:13;38.67;;;23.65;;
36009;SDS011;22076;52.182;5.404;2022-09-24T06:22:39;26.27;;;16.95;;
36009;SDS011;22076;52.182;5.404;2022-09-24T06:25:07;30.80;;;20.10;;
36009;SDS011;22076;52.182;5.404;2022-09-24T06:27:34;36.08;;;21.90;;
36009;SDS011;22076;52.182;5.404;2022-09-24T06:30:02;49.97;;;29.73;;
36009;SDS011;22076;52.182;5.404;2022-09-24T06:32:30;51.17;;;29.58;;
36009;SDS011;22076;52.182;5.404;2022-09-24T06:34:57;41.65;;;24.85;;
36009;SDS011;22076;52.182;5.404;2022-09-24T06:37:24;42.05;;;26.00;;
36009;SDS011;22076;52.182;5.404;2022-09-24T06:39:51;53.38;;;31.88;;
36009;SDS011;22076;52.182;5.404;2022-09-24T06:42:18;46.75;;;28.58;;
36009;SDS011;22076;52.182;5.404;2022-09-24T06:44:45;38.50;;;21.40;;
36009;SDS011;22076;52.182;5.404;2022-09-24T06:47:13;35.85;;;21.27;;
36009;SDS011;22076;52.182;5.404;2022-09-24T06:49:40;27.70;;;17.92;;
36009;SDS011;22076;52.182;5.404;2022-09-24T06:52:07;42.60;;;27.88;;
36009;SDS011;22076;52.182;5.404;2022-09-24T06:54:34;22.02;;;13.50;;
36009;SDS011;22076;52.182;5.404;2022-09-24T06:57:00;36.22;;;21.95;;
36009;SDS011;22076;52.182;5.404;2022-09-24T06:59:28;43.30;;;26.30;;
36009;SDS011;22076;52.182;5.404;2022-09-24T07:01:55;49.83;;;29.50;;
36009;SDS011;22076;52.182;5.404;2022-09-24T07:04:23;44.97;;;25.67;;
36009;SDS011;22076;52.182;5.404;2022-09-24T07:06:50;38.97;;;23.33;;
36009;SDS011;22076;52.182;5.404;2022-09-24T07:09:34;25.08;;;16.42;;
36009;SDS011;22076;52.182;5.404;2022-09-24T07:12:04;24.83;;;16.38;;
36009;SDS011;22076;52.182;5.404;2022-09-24T07:14:33;42.38;;;26.42;;
36009;SDS011;22076;52.182;5.404;2022-09-24T07:17:00;16.52;;;12.18;;
36009;SDS011;22076;52.182;5.404;2022-09-24T07:19:28;23.42;;;14.55;;
36009;SDS011;22076;52.182;5.404;2022-09-24T07:21:54;17.20;;;11.63;;
36009;SDS011;22076;52.182;5.404;2022-09-24T07:24:21;39.38;;;25.13;;
36009;SDS011;22076;52.182;5.404;2022-09-24T07:26:48;21.90;;;14.32;;
36009;SDS011;22076;52.182;5.404;2022-09-24T07:29:15;23.85;;;14.40;;
36009;SDS011;22076;52.182;5.404;2022-09-24T07:31:42;24.80;;;16.70;;
36009;SDS011;22076;52.182;5.404;2022-09-24T07:34:08;39.50;;;23.27;;
36009;SDS011;22076;52.182;5.404;2022-09-24T07:36:36;23.95;;;14.60;;
36009;SDS011;22076;52.182;5.404;2022-09-24T07:39:03;15.73;;;10.30;;
36009;SDS011;22076;52.182;5.404;2022-09-24T07:41:30;16.52;;;11.57;;
36009;SDS011;22076;52.182;5.404;2022-09-24T07:43:57;23.45;;;14.60;;
36009;SDS011;22076;52.182;5.404;2022-09-24T07:46:23;15.32;;;10.68;;
36009;SDS011;22076;52.182;5.404;2022-09-24T07:48:51;17.33;;;11.38;;
36009;SDS011;22076;52.182;5.404;2022-09-24T07:51:20;36.45;;;22.38;;
36009;SDS011;22076;52.182;5.404;2022-09-24T07:53:48;13.95;;;9.65;;
36009;SDS011;22076;52.182;5.404;2022-09-24T07:56:17;19.08;;;12.48;;
36009;SDS011;22076;52.182;5.404;2022-09-24T07:58:43;31.15;;;19.40;;
36009;SDS011;22076;52.182;5.404;2022-09-24T08:01:10;15.68;;;10.85;;
36009;SDS011;22076;52.182;5.404;2022-09-24T08:03:38;11.38;;;8.10;;
36009;SDS011;22076;52.182;5.404;2022-09-24T08:06:07;14.45;;;9.65;;
36009;SDS011;22076;52.182;5.404;2022-09-24T08:08:33;21.58;;;13.60;;
36009;SDS011;22076;52.182;5.404;2022-09-24T08:11:03;15.93;;;10.40;;
36009;SDS011;22076;52.182;5.404;2022-09-24T08:13:30;10.93;;;8.40;;
36009;SDS011;22076;52.182;5.404;2022-09-24T08:15:58;32.60;;;18.05;;
36009;SDS011;22076;52.182;5.404;2022-09-24T08:18:24;18.95;;;11.52;;
36009;SDS011;22076;52.182;5.404;2022-09-24T08:20:51;15.07;;;9.98;;
36009;SDS011;22076;52.182;5.404;2022-09-24T08:23:18;21.63;;;13.32;;
36009;SDS011;22076;52.182;5.404;2022-09-24T08:25:45;16.77;;;10.80;;
36009;SDS011;22076;52.182;5.404;2022-09-24T08:28:13;28.40;;;17.60;;
36009;SDS011;22076;52.182;5.404;2022-09-24T08:30:41;16.45;;;11.15;;
36009;SDS011;22076;52.182;5.404;2022-09-24T08:33:08;14.40;;;9.70;;
36009;SDS011;22076;52.182;5.404;2022-09-24T08:35:36;13.35;;;8.70;;
36009;SDS011;22076;52.182;5.404;2022-09-24T08:38:04;13.95;;;8.98;;
36009;SDS011;22076;52.182;5.404;2022-09-24T08:40:32;30.88;;;18.63;;
36009;SDS011;22076;52.182;5.404;2022-09-24T08:43:04;32.50;;;19.80;;
36009;SDS011;22076;52.182;5.404;2022-09-24T08:45:41;18.20;;;11.35;;
36009;SDS011;22076;52.182;5.404;2022-09-24T08:48:28;19.60;;;12.23;;
36009;SDS011;22076;52.182;5.404;2022-09-24T08:50:57;29.33;;;18.75;;
36009;SDS011;22076;52.182;5.404;2022-09-24T08:53:27;18.95;;;12.10;;
36009;SDS011;22076;52.182;5.404;2022-09-24T08:55:57;16.02;;;10.35;;
36009;SDS011;22076;52.182;5.404;2022-09-24T08:58:30;35.15;;;21.55;;
36009;SDS011;22076;52.182;5.404;2022-09-24T09:01:03;43.95;;;23.58;;
36009;SDS011;22076;52.182;5.404;2022-09-24T09:06:09;41.15;;;22.90;;
36009;SDS011;22076;52.182;5.404;2022-09-24T09:08:40;42.13;;;24.75;;
36009;SDS011;22076;52.182;5.404;2022-09-24T09:11:11;30.90;;;18.55;;
36009;SDS011;22076;52.182;5.404;2022-09-24T09:13:41;34.00;;;19.15;;
36009;SDS011;22076;52.182;5.404;2022-09-24T09:16:16;29.13;;;17.27;;
36009;SDS011;22076;52.182;5.404;2022-09-24T09:18:49;38.47;;;21.80;;
36009;SDS011;22076;52.182;5.404;2022-09-24T09:21:17;16.13;;;11.50;;
36009;SDS011;22076;52.182;5.404;2022-09-24T09:23:51;33.70;;;20.38;;
36009;SDS011;22076;52.182;5.404;2022-09-24T09:26:19;27.83;;;16.30;;
36009;SDS011;22076;52.182;5.404;2022-09-24T09:28:46;29.63;;;17.02;;
36009;SDS011;22076;52.182;5.404;2022-09-24T09:31:18;25.42;;;15.95;;
36009;SDS011;22076;52.182;5.404;2022-09-24T09:33:57;20.70;;;12.80;;
36009;SDS011;22076;52.182;5.404;2022-09-24T09:36:39;30.60;;;18.02;;
36009;SDS011;22076;52.182;5.404;2022-09-24T09:39:17;24.92;;;14.68;;
36009;SDS011;22076;52.182;5.404;2022-09-24T09:41:52;16.60;;;10.70;;
36009;SDS011;22076;52.182;5.404;2022-09-24T09:44:23;27.65;;;16.10;;
36009;SDS011;22076;52.182;5.404;2022-09-24T09:46:54;32.85;;;19.45;;
36009;SDS011;22076;52.182;5.404;2022-09-24T09:49:26;26.07;;;16.53;;
36009;SDS011;22076;52.182;5.404;2022-09-24T09:51:57;25.02;;;14.23;;
36009;SDS011;22076;52.182;5.404;2022-09-24T09:54:34;16.05;;;9.95;;
36009;SDS011;22076;52.182;5.404;2022-09-24T09:57:01;20.90;;;13.32;;
36009;SDS011;22076;52.182;5.404;2022-09-24T09:59:29;20.58;;;12.68;;
36009;SDS011;22076;52.182;5.404;2022-09-24T10:01:59;21.52;;;12.88;;
36009;SDS011;22076;52.182;5.404;2022-09-24T10:04:27;18.10;;;11.15;;
36009;SDS011;22076;52.182;5.404;2022-09-24T10:07:04;18.48;;;11.07;;
36009;SDS011;22076;52.182;5.404;2022-09-24T10:09:42;16.85;;;9.65;;
36009;SDS011;22076;52.182;5.404;2022-09-24T10:12:14;13.98;;;9.10;;
36009;SDS011;22076;52.182;5.404;2022-09-24T10:14:42;13.75;;;8.13;;
36009;SDS011;22076;52.182;5.404;2022-09-24T10:17:11;11.43;;;7.13;;
36009;SDS011;22076;52.182;5.404;2022-09-24T10:19:39;14.25;;;7.95;;
36009;SDS011;22076;52.182;5.404;2022-09-24T10:22:07;16.33;;;8.70;;
36009;SDS011;22076;52.182;5.404;2022-09-24T10:24:35;14.15;;;7.88;;
36009;SDS011;22076;52.182;5.404;2022-09-24T10:27:09;9.27;;;6.47;;
36009;SDS011;22076;52.182;5.404;2022-09-24T10:29:36;15.77;;;7.40;;
36009;SDS011;22076;52.182;5.404;2022-09-24T10:32:23;14.25;;;8.05;;
36009;SDS011;22076;52.182;5.404;2022-09-24T10:34:54;14.38;;;9.38;;
36009;SDS011;22076;52.182;5.404;2022-09-24T10:37:21;17.58;;;9.43;;
36009;SDS011;22076;52.182;5.404;2022-09-24T10:39:55;15.35;;;9.30;;
36009;SDS011;22076;52.182;5.404;2022-09-24T10:42:23;16.98;;;9.63;;
36009;SDS011;22076;52.182;5.404;2022-09-24T10:44:51;18.20;;;10.13;;
36009;SDS011;22076;52.182;5.404;2022-09-24T10:47:20;14.68;;;7.68;;
36009;SDS011;22076;52.182;5.404;2022-09-24T10:49:58;18.20;;;9.45;;
36009;SDS011;22076;52.182;5.404;2022-09-24T10:52:39;17.35;;;9.65;;
36009;SDS011;22076;52.182;5.404;2022-09-24T10:55:15;21.02;;;10.98;;
36009;SDS011;22076;52.182;5.404;2022-09-24T10:57:49;21.95;;;9.25;;
36009;SDS011;22076;52.182;5.404;2022-09-24T11:00:22;18.85;;;8.75;;
36009;SDS011;22076;52.182;5.404;2022-09-24T11:02:56;16.05;;;10.07;;
36009;SDS011;22076;52.182;5.404;2022-09-24T11:05:32;21.58;;;11.40;;
36009;SDS011;22076;52.182;5.404;2022-09-24T11:08:00;27.38;;;13.25;;
36009;SDS011;22076;52.182;5.404;2022-09-24T11:13:51;20.23;;;10.52;;
36009;SDS011;22076;52.182;5.404;2022-09-24T11:16:45;15.55;;;7.95;;
36009;SDS011;22076;52.182;5.404;2022-09-24T11:19:25;22.13;;;10.20;;
36009;SDS011;22076;52.182;5.404;2022-09-24T11:22:07;21.35;;;9.73;;
36009;SDS011;22076;52.182;5.404;2022-09-24T11:24:40;21.20;;;10.40;;
36009;SDS011;22076;52.182;5.404;2022-09-24T11:30:03;15.82;;;7.55;;
36009;SDS011;22076;52.182;5.404;2022-09-24T11:32:36;18.70;;;7.63;;
36009;SDS011;22076;52.182;5.404;2022-09-24T11:35:16;24.13;;;9.25;;
36009;SDS011;22076;52.182;5.404;2022-09-24T11:37:52;13.65;;;7.88;;
36009;SDS011;22076;52.182;5.404;2022-09-24T11:40:31;20.50;;;7.10;;
36009;SDS011;22076;52.182;5.404;2022-09-24T11:43:19;19.00;;;8.43;;
36009;SDS011;22076;52.182;5.404;2022-09-24T11:46:00;15.48;;;6.95;;
36009;SDS011;22076;52.182;5.404;2022-09-24T11:51:32;14.30;;;5.68;;
36009;SDS011;22076;52.182;5.404;2022-09-24T11:54:05;14.73;;;6.72;;
36009;SDS011;22076;52.182;5.404;2022-09-24T11:56:34;20.88;;;8.90;;
36009;SDS011;22076;52.182;5.404;2022-09-24T11:59:07;34.63;;;18.90;;
36009;SDS011;22076;52.182;5.404;2022-09-24T12:01:39;19.60;;;7.03;;
36009;SDS011;22076;52.182;5.404;2022-09-24T12:04:14;14.70;;;6.55;;
36009;SDS011;22076;52.182;5.404;2022-09-24T12:06:45;12.20;;;6.03;;
36009;SDS011;22076;52.182;5.404;2022-09-24T12:09:18;15.18;;;6.65;;
36009;SDS011;22076;52.182;5.404;2022-09-24T12:11:50;16.60;;;6.70;;
36009;SDS011;22076;52.182;5.404;2022-09-24T12:14:20;13.95;;;6.97;;
36009;SDS011;22076;52.182;5.404;2022-09-24T12:16:50;21.20;;;8.45;;
36009;SDS011;22076;52.182;5.404;2022-09-24T12:19:19;25.33;;;8.02;;
36009;SDS011;22076;52.182;5.404;2022-09-24T12:21:50;11.60;;;6.15;;
36009;SDS011;22076;52.182;5.404;2022-09-24T12:24:20;17.90;;;7.40;;
36009;SDS011;22076;52.182;5.404;2022-09-24T12:26:50;13.90;;;6.25;;
36009;SDS011;22076;52.182;5.404;2022-09-24T12:32:23;10.80;;;5.63;;
36009;SDS011;22076;52.182;5.404;2022-09-24T12:35:16;11.13;;;5.55;;
36009;SDS011;22076;52.182;5.404;2022-09-24T12:37:49;20.52;;;9.23;;
36009;SDS011;22076;52.182;5.404;2022-09-24T12:40:23;19.83;;;7.80;;
36009;SDS011;22076;52.182;5.404;2022-09-24T12:43:00;14.45;;;5.82;;
36009;SDS011;22076;52.182;5.404;2022-09-24T12:45:29;13.93;;;7.05;;
36009;SDS011;22076;52.182;5.404;2022-09-24T12:47:58;10.32;;;5.28;;
36009;SDS011;22076;52.182;5.404;2022-09-24T12:50:26;32.22;;;9.65;;
36009;SDS011;22076;52.182;5.404;2022-09-24T12:52:55;20.92;;;10.52;;
36009;SDS011;22076;52.182;5.404;2022-09-24T12:55:23;13.32;;;6.63;;
36009;SDS011;22076;52.182;5.404;2022-09-24T12:57:53;17.35;;;7.78;;
36009;SDS011;22076;52.182;5.404;2022-09-24T13:00:38;19.90;;;7.72;;
36009;SDS011;22076;52.182;5.404;2022-09-24T13:03:24;26.85;;;16.58;;
36009;SDS011;22076;52.182;5.404;2022-09-24T13:06:03;15.00;;;7.63;;
36009;SDS011;22076;52.182;5.404;2022-09-24T13:08:47;7.00;;;3.88;;
36009;SDS011;22076;52.182;5.404;2022-09-24T13:11:23;15.77;;;5.30;;
36009;SDS011;22076;52.182;5.404;2022-09-24T13:13:57;5.93;;;3.25;;
36009;SDS011;22076;52.182;5.404;2022-09-24T13:16:26;10.98;;;5.07;;
36009;SDS011;22076;52.182;5.404;2022-09-24T13:18:54;10.95;;;4.95;;
36009;SDS011;22076;52.182;5.404;2022-09-24T13:21:23;17.55;;;5.07;;
36009;SDS011;22076;52.182;5.404;2022-09-24T13:23:52;17.08;;;5.60;;
36009;SDS011;22076;52.182;5.404;2022-09-24T13:26:30;10.38;;;5.00;;
36009;SDS011;22076;52.182;5.404;2022-09-24T13:28:59;21.02;;;6.30;;
36009;SDS011;22076;52.182;5.404;2022-09-24T13:31:32;10.32;;;5.18;;
36009;SDS011;22076;52.182;5.404;2022-09-24T13:34:10;14.88;;;5.38;;
36009;SDS011;22076;52.182;5.404;2022-09-24T13:36:41;7.00;;;3.90;;
36009;SDS011;22076;52.182;5.404;2022-09-24T13:39:14;16.08;;;5.95;;
36009;SDS011;22076;52.182;5.404;2022-09-24T13:41:46;13.48;;;5.63;;
36009;SDS011;22076;52.182;5.404;2022-09-24T13:44:18;23.90;;;5.93;;
36009;SDS011;22076;52.182;5.404;2022-09-24T13:46:49;16.05;;;5.05;;
36009;SDS011;22076;52.182;5.404;2022-09-24T13:49:18;20.48;;;6.10;;
36009;SDS011;22076;52.182;5.404;2022-09-24T13:51:54;5.70;;;3.80;;
36009;SDS011;22076;52.182;5.404;2022-09-24T13:54:28;8.85;;;4.40;;
36009;SDS011;22076;52.182;5.404;2022-09-24T13:56:58;18.63;;;4.45;;
36009;SDS011;22076;52.182;5.404;2022-09-24T13:59:32;12.93;;;4.78;;
36009;SDS011;22076;52.182;5.404;2022-09-24T14:01:58;21.08;;;5.68;;
36009;SDS011;22076;52.182;5.404;2022-09-24T14:04:25;10.60;;;4.10;;
36009;SDS011;22076;52.182;5.404;2022-09-24T14:06:53;12.63;;;4.68;;
36009;SDS011;22076;52.182;5.404;2022-09-24T14:09:28;19.98;;;6.70;;
36009;SDS011;22076;52.182;5.404;2022-09-24T14:11:56;11.27;;;3.88;;
36009;SDS011;22076;52.182;5.404;2022-09-24T14:14:25;14.73;;;5.75;;
36009;SDS011;22076;52.182;5.404;2022-09-24T14:16:53;19.42;;;5.90;;
36009;SDS011;22076;52.182;5.404;2022-09-24T14:19:31;30.52;;;6.68;;
36009;SDS011;22076;52.182;5.404;2022-09-24T14:21:58;10.85;;;4.90;;
36009;SDS011;22076;52.182;5.404;2022-09-24T14:24:28;14.18;;;5.07;;
36009;SDS011;22076;52.182;5.404;2022-09-24T14:26:57;15.13;;;4.50;;
36009;SDS011;22076;52.182;5.404;2022-09-24T14:29:37;11.80;;;4.45;;
36009;SDS011;22076;52.182;5.404;2022-09-24T14:32:05;11.07;;;3.92;;
36009;SDS011;22076;52.182;5.404;2022-09-24T14:34:33;14.15;;;4.03;;
36009;SDS011;22076;52.182;5.404;2022-09-24T14:37:06;11.55;;;3.63;;
36009;SDS011;22076;52.182;5.404;2022-09-24T14:39:37;12.10;;;4.20;;
36009;SDS011;22076;52.182;5.404;2022-09-24T14:42:07;12.43;;;4.50;;
36009;SDS011;22076;52.182;5.404;2022-09-24T14:44:36;13.45;;;4.40;;
36009;SDS011;22076;52.182;5.404;2022-09-24T14:47:21;9.23;;;3.30;;
36009;SDS011;22076;52.182;5.404;2022-09-24T14:49:50;12.18;;;3.58;;
36009;SDS011;22076;52.182;5.404;2022-09-24T14:52:24;9.00;;;2.95;;
36009;SDS011;22076;52.182;5.404;2022-09-24T14:57:45;10.98;;;2.78;;
36009;SDS011;22076;52.182;5.404;2022-09-24T15:00:19;15.63;;;3.17;;
36009;SDS011;22076;52.182;5.404;2022-09-24T15:02:48;12.25;;;2.85;;
36009;SDS011;22076;52.182;5.404;2022-09-24T15:05:16;12.57;;;2.55;;
36009;SDS011;22076;52.182;5.404;2022-09-24T15:07:48;13.60;;;3.20;;